createdAt,value
2023-09-08T00:00:37.571Z,100963.47
2023-09-08T00:02:00.597Z,100962.19
2023-09-08T00:03:24.666Z,100962.59
2023-09-08T00:04:47.122Z,100961.13
2023-09-08T00:06:10.430Z,100965.91
2023-09-08T00:07:32.531Z,100952.69
2023-09-08T00:08:55.921Z,100963.97
2023-09-08T00:10:17.961Z,100965.38
2023-09-08T00:11:42.271Z,100958.06
2023-09-08T00:13:04.722Z,100960.47
2023-09-08T00:14:29.327Z,100958.75
2023-09-08T00:15:51.475Z,100962.44
2023-09-08T00:17:14.442Z,100961.63
2023-09-08T00:18:37.178Z,100959.78
2023-09-08T00:20:00.385Z,100956.75
2023-09-08T00:21:22.646Z,100955.69
2023-09-08T00:22:46.307Z,100958.13
2023-09-08T00:24:08.704Z,100954.50
2023-09-08T00:25:32.027Z,100955.31
2023-09-08T00:26:54.321Z,100953.66
2023-09-08T00:28:18.246Z,100946.91
2023-09-08T00:29:41.934Z,100951.34
2023-09-08T00:31:09.009Z,100950.25
2023-09-08T00:32:31.754Z,100944.59
2023-09-08T00:33:56.723Z,100944.78
2023-09-08T00:35:19.653Z,100955.91
2023-09-08T00:36:43.238Z,100964.78
2023-09-08T00:38:06.065Z,100957.19
2023-09-08T00:39:31.554Z,100950.44
2023-09-08T00:40:53.958Z,100947.03
2023-09-08T00:42:17.219Z,100955.22
2023-09-08T00:43:39.673Z,100957.44
2023-09-08T00:45:05.003Z,100954.47
2023-09-08T00:46:29.131Z,100951.31
2023-09-08T00:47:53.451Z,100952.50
2023-09-08T00:49:19.772Z,100957.78
2023-09-08T00:50:43.921Z,100959.66
2023-09-08T00:52:07.161Z,100951.72
2023-09-08T00:53:32.048Z,100956.53
2023-09-08T00:54:54.547Z,100956.63
2023-09-08T00:56:19.255Z,100947.47
2023-09-08T00:57:42.203Z,100954.81
2023-09-08T00:59:06.995Z,100961.22
2023-09-08T01:00:33.076Z,100959.13
2023-09-08T01:01:57.122Z,100956.25
2023-09-08T01:03:22.272Z,100956.63
2023-09-08T01:04:48.586Z,100943.69
2023-09-08T01:06:11.718Z,100950.63
2023-09-08T01:07:36.319Z,100952.75
2023-09-08T01:08:59.027Z,100954.47
2023-09-08T01:10:24.014Z,100949.63
2023-09-08T01:11:46.887Z,100958.03
2023-09-08T01:13:12.621Z,100957.13
2023-09-08T01:14:36.041Z,100950.78
2023-09-08T01:16:05.662Z,100961.97
2023-09-08T01:17:28.938Z,100950.59
2023-09-08T01:18:57.048Z,100957.56
2023-09-08T01:20:23.309Z,100963.06
2023-09-08T01:22:16.096Z,100959.00
2023-09-08T01:23:57.945Z,100952.75
2023-09-08T01:25:23.404Z,100955.72
2023-09-08T01:26:47.225Z,100953.03
2023-09-08T01:28:12.159Z,100959.88
2023-09-08T01:29:46.275Z,100950.75
2023-09-08T01:31:11.568Z,100955.63
2023-09-08T01:32:36.422Z,100950.28
2023-09-08T01:34:07.789Z,100953.22
2023-09-08T01:35:32.413Z,100944.94
2023-09-08T01:36:56.553Z,100947.25
2023-09-08T01:38:18.771Z,100945.53
2023-09-08T01:39:42.316Z,100953.94
2023-09-08T01:41:05.886Z,100950.59
2023-09-08T01:42:29.406Z,100950.78
2023-09-08T01:43:54.199Z,100948.56
2023-09-08T01:46:58.209Z,100936.59
2023-09-08T01:48:22.231Z,100937.75
2023-09-08T01:49:44.630Z,100946.63
2023-09-08T01:51:07.709Z,100947.19
2023-09-08T01:52:30.140Z,100955.66
2023-09-08T01:53:57.660Z,100943.47
2023-09-08T01:55:19.877Z,100934.28
2023-09-08T01:56:44.876Z,100941.53
2023-09-08T01:58:07.447Z,100947.22
2023-09-08T01:59:31.530Z,100941.38
2023-09-08T02:01:07.173Z,100952.16
2023-09-08T02:02:29.484Z,100952.50
2023-09-08T02:03:53.433Z,100946.06
2023-09-08T02:06:40.055Z,100948.56
2023-09-08T02:08:02.993Z,100942.41
2023-09-08T02:09:33.288Z,100943.38
2023-09-08T02:10:55.795Z,100936.44
2023-09-08T02:12:25.131Z,100938.72
2023-09-08T02:13:47.580Z,100942.97
2023-09-08T02:15:12.589Z,100940.47
2023-09-08T02:16:34.973Z,100939.06
2023-09-08T02:18:07.811Z,100940.69
2023-09-08T02:19:30.499Z,100940.19
2023-09-08T02:20:55.422Z,100936.38
2023-09-08T02:22:19.806Z,100940.84
2023-09-08T02:23:44.940Z,100931.00
2023-09-08T02:25:08.297Z,100935.13
2023-09-08T02:26:34.537Z,100933.16
2023-09-08T02:27:58.364Z,100931.72
2023-09-08T02:29:22.523Z,100920.53
2023-09-08T02:30:46.818Z,100928.25
2023-09-08T02:32:18.544Z,100936.66
2023-09-08T02:33:41.140Z,100937.41
2023-09-08T02:35:04.880Z,100931.00
2023-09-08T02:36:28.043Z,100926.19
2023-09-08T02:37:51.289Z,100920.91
2023-09-08T02:39:14.781Z,100922.78
2023-09-08T02:40:38.544Z,100929.97
2023-09-08T02:42:00.751Z,100932.00
2023-09-08T02:43:29.832Z,100928.56
2023-09-08T02:44:53.534Z,100939.25
2023-09-08T02:46:17.871Z,100924.16
2023-09-08T02:47:40.384Z,100929.38
2023-09-08T02:49:05.821Z,100937.81
2023-09-08T02:50:28.275Z,100929.81
2023-09-08T02:51:51.858Z,100931.69
2023-09-08T02:54:50.896Z,100928.00
2023-09-08T02:56:13.710Z,100932.81
2023-09-08T02:57:37.260Z,100916.84
2023-09-08T02:59:01.079Z,100924.59
2023-09-08T03:00:24.991Z,100929.56
2023-09-08T03:01:49.443Z,100928.00
2023-09-08T03:03:13.069Z,100932.72
2023-09-08T03:04:35.383Z,100929.94
2023-09-08T03:06:04.407Z,100938.53
2023-09-08T03:07:26.492Z,100930.38
2023-09-08T03:08:49.551Z,100927.03
2023-09-08T03:10:13.728Z,100928.16
2023-09-08T03:11:38.733Z,100930.78
2023-09-08T03:13:01.083Z,100924.72
2023-09-08T03:14:25.984Z,100934.34
2023-09-08T03:15:50.016Z,100920.22
2023-09-08T03:17:17.536Z,100926.56
2023-09-08T03:18:39.730Z,100926.75
2023-09-08T03:20:02.833Z,100922.19
2023-09-08T03:21:25.846Z,100921.19
2023-09-08T03:22:47.947Z,100927.41
2023-09-08T03:24:10.979Z,100922.38
2023-09-08T03:25:33.006Z,100919.97
2023-09-08T03:26:56.326Z,100923.34
2023-09-08T03:28:18.692Z,100912.56
2023-09-08T03:29:43.443Z,100916.97
2023-09-08T03:31:06.637Z,100918.00
2023-09-08T03:32:30.191Z,100926.56
2023-09-08T03:33:52.423Z,100922.09
2023-09-08T03:35:17.514Z,100914.41
2023-09-08T03:36:40.691Z,100913.09
2023-09-08T03:38:02.817Z,100912.31
2023-09-08T03:39:25.939Z,100915.81
2023-09-08T03:40:48.042Z,100912.47
2023-09-08T03:42:11.008Z,100911.38
2023-09-08T03:43:33.421Z,100910.81
2023-09-08T03:44:58.242Z,100908.41
2023-09-08T03:46:20.293Z,100915.06
2023-09-08T03:47:43.493Z,100906.72
2023-09-08T03:49:06.490Z,100908.63
2023-09-08T03:50:28.613Z,100900.28
2023-09-08T03:51:51.636Z,100911.44
2023-09-08T03:53:13.988Z,100899.19
2023-09-08T03:54:38.307Z,100911.81
2023-09-08T03:56:00.461Z,100908.00
2023-09-08T03:57:23.600Z,100907.69
2023-09-08T03:58:45.770Z,100910.16
2023-09-08T04:00:12.919Z,100908.28
2023-09-08T04:01:34.973Z,100903.16
2023-09-08T04:02:58.319Z,100909.09
2023-09-08T04:04:21.419Z,100896.38
2023-09-08T04:05:44.478Z,100912.38
2023-09-08T04:07:06.536Z,100911.59
2023-09-08T04:08:29.936Z,100914.69
2023-09-08T04:09:52.042Z,100903.25
2023-09-08T04:11:15.013Z,100910.41
2023-09-08T04:12:37.189Z,100912.47
2023-09-08T04:14:00.321Z,100916.69
2023-09-08T04:15:23.926Z,100911.72
2023-09-08T04:16:46.875Z,100913.09
2023-09-08T04:18:09.240Z,100909.97
2023-09-08T04:19:32.276Z,100908.88
2023-09-08T04:20:54.288Z,100912.38
2023-09-08T04:22:17.376Z,100906.03
2023-09-08T04:23:39.307Z,100909.59
2023-09-08T04:25:02.729Z,100908.19
2023-09-08T04:26:24.654Z,100911.50
2023-09-08T04:27:49.179Z,100914.19
2023-09-08T04:29:11.210Z,100912.00
2023-09-08T04:30:35.630Z,100913.50
2023-09-08T04:31:57.925Z,100916.34
2023-09-08T04:33:21.250Z,100906.28
2023-09-08T04:34:43.750Z,100903.03
2023-09-08T04:36:06.965Z,100914.41
2023-09-08T04:37:29.115Z,100904.50
2023-09-08T04:38:52.266Z,100903.16
2023-09-08T04:40:14.285Z,100895.97
2023-09-08T04:41:37.323Z,100906.56
2023-09-08T04:42:59.356Z,100907.13
2023-09-08T04:44:22.299Z,100897.56
2023-09-08T04:45:46.558Z,100900.19
2023-09-08T04:47:09.511Z,100902.56
2023-09-08T04:48:31.843Z,100909.44
2023-09-08T04:49:54.928Z,100903.03
2023-09-08T04:51:16.871Z,100903.44
2023-09-08T04:52:39.860Z,100895.41
2023-09-08T04:54:01.840Z,100898.63
2023-09-08T04:55:25.631Z,100897.88
2023-09-08T04:56:47.705Z,100901.34
2023-09-08T04:58:10.857Z,100893.09
2023-09-08T04:59:33.708Z,100893.88
2023-09-08T05:00:59.079Z,100899.69
2023-09-08T05:02:21.229Z,100892.75
2023-09-08T05:03:44.446Z,100900.59
2023-09-08T05:05:07.212Z,100895.84
2023-09-08T05:06:30.243Z,100906.78
2023-09-08T05:07:54.494Z,100901.38
2023-09-08T05:09:17.997Z,100897.28
2023-09-08T05:10:40.004Z,100907.69
2023-09-08T05:12:02.974Z,100906.53
2023-09-08T05:13:31.296Z,100901.38
2023-09-08T05:14:57.996Z,100905.44
2023-09-08T05:16:37.277Z,100906.00
2023-09-08T05:18:01.855Z,100904.78
2023-09-08T05:19:24.086Z,100908.00
2023-09-08T05:20:49.771Z,100914.16
2023-09-08T05:22:11.704Z,100907.41
2023-09-08T05:23:34.794Z,100905.78
2023-09-08T05:24:57.568Z,100902.03
2023-09-08T05:26:20.590Z,100906.25
2023-09-08T05:27:42.611Z,100904.53
2023-09-08T05:29:05.920Z,100906.75
2023-09-08T05:30:28.268Z,100911.38
2023-09-08T05:31:56.292Z,100904.69
2023-09-08T05:33:18.487Z,100904.38
2023-09-08T05:34:41.788Z,100899.91
2023-09-08T05:36:03.866Z,100905.78
2023-09-08T05:37:26.895Z,100906.47
2023-09-08T05:38:48.798Z,100903.69
2023-09-08T05:40:12.259Z,100906.91
2023-09-08T05:41:35.032Z,100905.03
2023-09-08T05:42:58.148Z,100906.84
2023-09-08T05:44:20.172Z,100905.31
2023-09-08T05:45:43.196Z,100905.41
2023-09-08T05:47:06.710Z,100909.28
2023-09-08T05:48:29.875Z,100910.00
2023-09-08T06:56:48.064Z,100895.31
2023-09-08T06:58:10.529Z,100916.84
2023-09-08T06:59:35.350Z,100910.13
2023-09-08T07:01:10.955Z,100915.88
2023-09-08T07:02:43.482Z,100918.34
2023-09-08T07:04:18.356Z,100916.00
2023-09-08T07:05:43.392Z,100900.72
2023-09-08T07:07:41.434Z,100914.44
2023-09-08T07:09:34.722Z,100917.22
2023-09-08T07:11:21.772Z,100909.22
2023-09-08T07:13:16.394Z,100918.72
2023-09-08T07:14:41.390Z,100914.19
2023-09-08T07:16:14.060Z,100917.78
2023-09-08T07:17:39.137Z,100920.44
2023-09-08T07:23:39.365Z,100921.34
2023-09-08T07:25:02.598Z,100922.31
2023-09-08T07:26:35.138Z,100922.50
2023-09-08T07:28:04.732Z,100924.59
2023-09-08T07:29:28.423Z,100925.41
2023-09-08T07:30:51.813Z,100926.25
2023-09-08T07:32:15.429Z,100925.09
2023-09-08T07:35:43.415Z,100922.50
2023-09-08T07:37:05.647Z,100926.56
2023-09-08T07:38:29.224Z,100924.91
2023-09-08T07:39:52.855Z,100920.50
2023-09-08T07:41:20.638Z,100923.25
2023-09-08T07:42:45.669Z,100925.41
2023-09-08T07:44:09.738Z,100922.94
2023-09-08T07:45:34.699Z,100919.94
2023-09-08T07:46:58.754Z,100910.78
2023-09-08T07:48:23.054Z,100908.25
2023-09-08T07:49:47.997Z,100908.56
2023-09-08T07:51:15.586Z,100910.47
2023-09-08T07:52:39.117Z,100905.84
2023-09-08T07:54:04.604Z,100903.16
2023-09-08T07:55:30.093Z,100902.97
2023-09-08T07:56:52.658Z,100905.78
2023-09-08T07:58:16.448Z,100907.81
2023-09-08T07:59:38.606Z,100904.78
2023-09-08T08:01:03.268Z,100904.50
2023-09-08T08:02:27.385Z,100900.25
2023-09-08T08:03:52.038Z,100903.16
2023-09-08T08:05:14.547Z,100900.31
2023-09-08T08:06:40.378Z,100902.91
2023-09-08T08:08:02.845Z,100898.69
2023-09-08T08:09:27.100Z,100905.66
2023-09-08T08:10:51.733Z,100899.25
2023-09-08T08:12:15.996Z,100905.31
2023-09-08T08:13:40.470Z,100900.25
2023-09-08T08:15:04.000Z,100904.06
2023-09-08T08:16:26.574Z,100898.78
2023-09-08T08:17:50.167Z,100908.06
2023-09-08T08:19:12.512Z,100906.81
2023-09-08T08:20:41.536Z,100907.75
2023-09-08T08:22:05.104Z,100904.41
2023-09-08T08:23:28.496Z,100902.00
2023-09-08T08:24:50.623Z,100908.03
2023-09-08T08:26:16.814Z,100902.47
2023-09-08T08:27:38.990Z,100906.06
2023-09-08T08:29:02.751Z,100899.69
2023-09-08T08:30:25.209Z,100900.63
2023-09-08T08:31:48.407Z,100897.97
2023-09-08T08:33:12.779Z,100900.94
2023-09-08T08:34:35.001Z,100892.84
2023-09-08T08:36:01.616Z,100891.91
2023-09-08T08:37:26.644Z,100888.53
2023-09-08T08:38:51.410Z,100892.03
2023-09-08T08:40:14.870Z,100897.41
2023-09-08T08:41:40.646Z,100897.31
2023-09-08T08:43:04.950Z,100902.13
2023-09-08T08:44:27.584Z,100891.44
2023-09-08T08:45:52.635Z,100889.91
2023-09-08T08:47:17.340Z,100891.19
2023-09-08T08:48:42.597Z,100887.78
2023-09-08T08:50:06.608Z,100891.22
2023-09-08T08:51:32.585Z,100895.63
2023-09-08T08:52:57.065Z,100896.19
2023-09-08T08:54:20.398Z,100897.72
2023-09-08T08:55:45.139Z,100889.97
2023-09-08T08:57:09.097Z,100897.59
2023-09-08T08:58:33.572Z,100890.69
2023-09-08T08:59:57.479Z,100891.97
2023-09-08T09:01:21.053Z,100892.03
2023-09-08T09:02:47.605Z,100880.34
2023-09-08T09:04:17.728Z,100890.03
2023-09-08T09:05:41.074Z,100881.78
2023-09-08T09:07:05.173Z,100886.38
2023-09-08T09:08:30.944Z,100877.59
2023-09-08T09:09:56.098Z,100883.09
2023-09-08T09:11:22.167Z,100884.56
2023-09-08T09:12:44.676Z,100883.00
2023-09-08T09:14:07.786Z,100884.00
2023-09-08T09:15:31.041Z,100884.19
2023-09-08T09:16:58.777Z,100882.22
2023-09-08T09:18:21.234Z,100886.09
2023-09-08T09:19:44.424Z,100883.22
2023-09-08T09:21:06.880Z,100879.91
2023-09-08T09:22:40.436Z,100886.00
2023-09-08T09:24:04.209Z,100885.41
2023-09-08T09:25:30.589Z,100882.06
2023-09-08T09:26:54.235Z,100882.19
2023-09-08T09:28:17.650Z,100889.84
2023-09-08T09:29:47.517Z,100886.31
2023-09-08T09:31:12.482Z,100887.06
2023-09-08T09:32:36.479Z,100883.22
2023-09-08T09:34:07.692Z,100883.53
2023-09-08T09:35:43.985Z,100879.19
2023-09-08T09:37:07.057Z,100880.72
2023-09-08T09:38:29.615Z,100870.13
2023-09-08T09:39:56.362Z,100876.69
2023-09-08T09:41:18.587Z,100877.22
2023-09-08T09:42:52.061Z,100885.63
2023-09-08T09:44:14.197Z,100877.03
2023-09-08T09:45:39.496Z,100872.09
2023-09-08T09:47:02.306Z,100881.66
2023-09-08T09:48:26.038Z,100875.97
2023-09-08T09:49:52.098Z,100876.53
2023-09-08T09:51:19.688Z,100883.28
2023-09-08T09:52:41.758Z,100871.56
2023-09-08T09:54:09.051Z,100868.78
2023-09-08T09:55:33.277Z,100868.44
2023-09-08T09:56:56.568Z,100865.41
2023-09-08T09:58:22.022Z,100860.78
2023-09-08T09:59:49.570Z,100869.38
2023-09-08T10:01:15.474Z,100869.03
2023-09-08T10:02:39.418Z,100866.59
2023-09-08T10:04:02.353Z,100868.22
2023-09-08T10:05:26.575Z,100864.31
2023-09-08T10:06:49.365Z,100869.13
2023-09-08T10:08:12.547Z,100869.81
2023-09-08T10:09:34.726Z,100866.03
2023-09-08T10:11:01.623Z,100860.78
2023-09-08T10:12:26.386Z,100863.47
2023-09-08T10:13:53.868Z,100866.03
2023-09-08T10:15:21.972Z,100862.03
2023-09-08T10:16:51.012Z,100859.47
2023-09-08T10:18:20.413Z,100861.69
2023-09-08T10:19:47.007Z,100858.94
2023-09-08T10:21:11.520Z,100858.22
2023-09-08T10:22:35.050Z,100862.63
2023-09-08T10:24:06.644Z,100867.19
2023-09-08T10:25:39.789Z,100858.56
2023-09-08T10:27:09.072Z,100855.25
2023-09-08T10:28:34.369Z,100859.88
2023-09-08T10:29:57.438Z,100862.66
2023-09-08T10:31:22.181Z,100857.72
2023-09-08T10:32:44.801Z,100856.00
2023-09-08T10:34:09.073Z,100846.53
2023-09-08T10:35:31.799Z,100847.06
2023-09-08T10:36:55.232Z,100849.31
2023-09-08T10:38:25.101Z,100843.34
2023-09-08T10:39:49.941Z,100845.19
2023-09-08T10:41:33.185Z,100844.63
2023-09-08T10:43:10.869Z,100838.56
2023-09-08T10:44:33.914Z,100835.09
2023-09-08T10:45:59.410Z,100848.31
2023-09-08T10:47:24.502Z,100845.09
2023-09-08T10:48:47.777Z,100834.16
2023-09-08T10:50:20.555Z,100839.06
2023-09-08T10:51:44.468Z,100842.41
2023-09-08T10:53:15.074Z,100844.94
2023-09-08T10:54:43.096Z,100839.34
2023-09-08T10:56:17.890Z,100839.97
2023-09-08T10:59:40.165Z,100830.31
2023-09-08T11:01:02.915Z,100831.00
2023-09-08T11:02:41.871Z,100828.13
2023-09-08T11:04:20.345Z,100826.78
2023-09-08T11:05:44.585Z,100836.66
2023-09-08T11:07:14.432Z,100837.41
2023-09-08T11:08:39.911Z,100828.97
2023-09-08T11:10:04.332Z,100828.78
2023-09-08T11:11:26.779Z,100820.72
2023-09-08T11:12:54.052Z,100824.53
2023-09-08T11:14:18.166Z,100829.34
2023-09-08T11:15:44.689Z,100825.38
2023-09-08T11:17:12.092Z,100827.59
2023-09-08T11:18:37.442Z,100822.03
2023-09-08T11:20:00.198Z,100826.34
2023-09-08T11:21:23.389Z,100823.28
2023-09-08T11:22:47.662Z,100828.69
2023-09-08T11:24:16.263Z,100817.50
2023-09-08T11:25:38.522Z,100820.88
2023-09-08T11:27:02.029Z,100810.78
2023-09-08T11:28:25.934Z,100825.59
2023-09-08T11:29:52.456Z,100824.59
2023-09-08T11:31:16.132Z,100815.06
2023-09-08T11:32:39.858Z,100809.03
2023-09-08T11:34:03.743Z,100817.88
2023-09-08T11:35:34.446Z,100814.75
2023-09-08T11:36:58.944Z,100815.50
2023-09-08T11:38:27.497Z,100812.25
2023-09-08T11:39:49.677Z,100809.91
2023-09-08T11:41:14.917Z,100806.97
2023-09-08T11:42:45.586Z,100812.72
2023-09-08T11:44:09.811Z,100816.88
2023-09-08T11:45:34.940Z,100811.06
2023-09-08T11:47:00.897Z,100809.19
2023-09-08T11:48:25.084Z,100812.59
2023-09-08T11:49:49.472Z,100804.03
2023-09-08T11:51:11.832Z,100809.69
2023-09-08T11:52:46.642Z,100809.56
2023-09-08T11:54:31.982Z,100815.06
2023-09-08T11:55:59.366Z,100805.56
2023-09-08T11:57:23.966Z,100806.38
2023-09-08T11:58:48.162Z,100804.13
2023-09-08T12:00:17.004Z,100810.53
2023-09-08T12:01:43.293Z,100805.38
2023-09-08T12:03:14.429Z,100801.88
2023-09-08T12:04:39.880Z,100795.88
2023-09-08T12:06:03.814Z,100794.47
2023-09-08T12:07:26.960Z,100790.75
2023-09-08T12:08:49.785Z,100791.63
2023-09-08T12:10:15.412Z,100800.31
2023-09-08T12:11:42.535Z,100785.78
2023-09-08T12:13:06.878Z,100797.84
2023-09-08T12:14:30.026Z,100794.97
2023-09-08T12:15:54.020Z,100785.44
2023-09-08T12:17:18.637Z,100781.94
2023-09-08T12:18:46.537Z,100784.97
2023-09-08T12:20:16.262Z,100778.56
2023-09-08T12:21:58.024Z,100781.47
2023-09-08T12:23:23.018Z,100779.03
2023-09-08T12:24:50.263Z,100781.78
2023-09-08T12:26:13.662Z,100774.22
2023-09-08T12:27:37.730Z,100769.16
2023-09-08T12:29:01.418Z,100771.06
2023-09-08T12:30:30.761Z,100775.28
2023-09-08T12:31:54.372Z,100770.69
2023-09-08T12:33:22.172Z,100769.56
2023-09-08T12:34:47.182Z,100767.31
2023-09-08T12:36:15.477Z,100764.03
2023-09-08T12:37:40.323Z,100762.03
2023-09-08T12:39:06.421Z,100763.72
2023-09-08T12:40:29.218Z,100755.50
2023-09-08T12:41:55.695Z,100767.47
2023-09-08T12:43:27.057Z,100768.88
2023-09-08T12:44:51.244Z,100764.50
2023-09-08T12:46:16.522Z,100760.47
2023-09-08T12:47:40.000Z,100765.72
2023-09-08T12:49:01.990Z,100758.00
2023-09-08T12:50:27.283Z,100764.75
2023-09-08T12:51:49.585Z,100757.03
2023-09-08T12:53:13.359Z,100759.63
2023-09-08T12:54:35.489Z,100764.25
2023-09-08T12:55:58.832Z,100753.41
2023-09-08T12:57:21.115Z,100749.25
2023-09-08T12:58:44.165Z,100756.59
2023-09-08T13:00:08.498Z,100749.78
2023-09-08T13:01:31.756Z,100747.00
2023-09-08T13:02:53.907Z,100751.59
2023-09-08T13:04:16.997Z,100755.50
2023-09-08T13:05:40.955Z,100749.50
2023-09-08T13:07:06.012Z,100755.00
2023-09-08T13:08:29.673Z,100749.41
2023-09-08T13:09:52.137Z,100747.16
2023-09-08T13:11:16.181Z,100744.25
2023-09-08T13:12:44.966Z,100747.78
2023-09-08T13:14:10.365Z,100750.50
2023-09-08T13:15:33.395Z,100748.41
2023-09-08T13:16:56.771Z,100738.75
2023-09-08T13:18:20.084Z,100744.56
2023-09-08T13:19:42.178Z,100740.59
2023-09-08T13:21:07.544Z,100753.31
2023-09-08T13:22:30.693Z,100745.88
2023-09-08T13:23:52.945Z,100744.25
2023-09-08T13:25:34.331Z,100741.09
2023-09-08T13:26:57.064Z,100745.06
2023-09-08T13:28:20.163Z,100732.25
2023-09-08T13:29:42.251Z,100741.69
2023-09-08T13:31:05.630Z,100732.28
2023-09-08T13:32:30.029Z,100738.19
2023-09-08T13:33:53.452Z,100729.69
2023-09-08T13:35:15.445Z,100726.63
2023-09-08T13:36:40.119Z,100727.31
2023-09-08T13:38:05.044Z,100729.34
2023-09-08T13:39:28.284Z,100725.97
2023-09-08T13:40:50.930Z,100725.09
2023-09-08T13:42:14.385Z,100720.34
2023-09-08T13:43:37.153Z,100714.94
2023-09-08T13:45:00.908Z,100716.28
2023-09-08T13:46:24.020Z,100728.47
2023-09-08T13:47:48.015Z,100727.56
2023-09-08T13:49:12.685Z,100726.97
2023-09-08T13:50:37.647Z,100723.78
2023-09-08T13:52:09.208Z,100722.75
2023-09-08T13:53:42.660Z,100721.88
2023-09-08T13:55:34.907Z,100716.66
2023-09-08T13:57:08.882Z,100717.16
2023-09-08T13:58:49.410Z,100717.88
2023-09-08T14:00:17.289Z,100714.34
2023-09-08T14:01:41.950Z,100713.53
2023-09-08T14:03:13.298Z,100715.59
2023-09-08T14:04:43.688Z,100717.06
2023-09-08T14:06:29.086Z,100715.56
2023-09-08T14:07:58.345Z,100707.28
2023-09-08T14:11:04.632Z,100701.88
2023-09-08T14:12:34.699Z,100709.75
2023-09-08T14:13:58.526Z,100699.03
2023-09-08T14:15:22.043Z,100704.81
2023-09-08T14:16:44.075Z,100708.56
2023-09-08T14:18:08.092Z,100702.50
2023-09-08T14:19:30.401Z,100695.09
2023-09-08T14:20:53.325Z,100701.47
2023-09-08T14:22:15.308Z,100704.69
2023-09-08T14:23:39.915Z,100706.94
2023-09-08T14:25:01.905Z,100696.16
2023-09-08T14:26:26.930Z,100691.44
2023-09-08T14:27:49.417Z,100703.97
2023-09-08T14:29:12.641Z,100690.50
2023-09-08T14:30:35.540Z,100687.44
2023-09-08T14:31:58.890Z,100694.69
2023-09-08T14:33:21.046Z,100679.34
2023-09-08T14:34:44.087Z,100687.88
2023-09-08T14:36:06.466Z,100695.75
2023-09-08T14:37:29.507Z,100683.41
2023-09-08T14:38:53.437Z,100684.22
2023-09-08T14:40:16.683Z,100684.44
2023-09-08T14:41:38.919Z,100684.91
2023-09-08T14:43:01.876Z,100683.94
2023-09-08T14:44:24.163Z,100684.50
2023-09-08T14:45:47.622Z,100675.16
2023-09-08T14:47:10.055Z,100680.84
2023-09-08T14:48:33.258Z,100680.34
2023-09-08T14:49:57.787Z,100679.25
2023-09-08T14:51:20.177Z,100679.88
2023-09-08T14:52:44.125Z,100678.72
2023-09-08T14:54:07.585Z,100670.47
2023-09-08T14:55:32.349Z,100682.19
2023-09-08T14:56:54.930Z,100680.59
2023-09-08T14:58:18.318Z,100678.44
2023-09-08T14:59:42.677Z,100673.84
2023-09-08T15:01:09.605Z,100675.22
2023-09-08T15:02:32.189Z,100668.88
2023-09-08T15:03:56.332Z,100664.06
2023-09-08T15:05:18.600Z,100663.84
2023-09-08T15:06:42.362Z,100667.72
2023-09-08T15:08:11.036Z,100664.44
2023-09-08T15:09:35.493Z,100673.25
2023-09-08T15:10:57.508Z,100663.56
2023-09-08T15:12:23.834Z,100670.16
2023-09-08T15:13:45.936Z,100663.75
2023-09-08T15:15:10.259Z,100661.81
2023-09-08T15:16:35.214Z,100660.69
2023-09-08T15:17:58.652Z,100657.47
2023-09-08T15:19:20.816Z,100666.09
2023-09-08T15:20:52.088Z,100662.06
2023-09-08T15:22:14.420Z,100661.94
2023-09-08T15:23:37.704Z,100668.75
2023-09-08T15:25:02.661Z,100659.03
2023-09-08T15:26:26.203Z,100655.44
2023-09-08T15:27:51.307Z,100660.94
2023-09-08T15:29:14.777Z,100652.69
2023-09-08T15:30:39.882Z,100660.09
2023-09-08T15:32:02.754Z,100654.34
2023-09-08T15:33:26.204Z,100656.09
2023-09-08T15:34:55.097Z,100659.28
2023-09-08T15:36:18.228Z,100656.47
2023-09-08T15:37:44.700Z,100655.38
2023-09-08T15:39:08.151Z,100651.31
2023-09-08T15:40:34.112Z,100658.44
2023-09-08T15:41:57.172Z,100657.16
2023-09-08T15:43:21.958Z,100661.03
2023-09-08T15:44:46.828Z,100654.00
2023-09-08T15:46:09.608Z,100656.13
2023-09-08T15:47:33.206Z,100653.78
2023-09-08T15:48:57.625Z,100658.69
2023-09-08T15:50:27.497Z,100649.63
2023-09-08T15:51:54.214Z,100658.75
2023-09-08T15:53:24.048Z,100649.34
2023-09-08T15:54:47.397Z,100649.19
2023-09-08T15:56:11.100Z,100652.66
2023-09-08T15:57:34.238Z,100647.88
2023-09-08T15:58:58.627Z,100640.22
2023-09-08T16:00:21.957Z,100647.22
2023-09-08T16:01:44.884Z,100647.25
2023-09-08T16:03:08.751Z,100647.03
2023-09-08T16:04:34.119Z,100650.63
2023-09-08T16:06:10.632Z,100648.03
2023-09-08T16:07:35.514Z,100647.16
2023-09-08T16:08:59.643Z,100646.22
2023-09-08T16:10:24.569Z,100641.38
2023-09-08T16:11:49.467Z,100640.25
2023-09-08T16:13:12.070Z,100635.75
2023-09-08T16:14:36.432Z,100640.78
2023-09-08T16:15:58.990Z,100640.66
2023-09-08T16:17:22.507Z,100639.75
2023-09-08T16:18:44.808Z,100636.25
2023-09-08T16:20:15.299Z,100637.66
2023-09-08T16:21:37.468Z,100641.53
2023-09-08T16:23:00.684Z,100635.53
2023-09-08T16:24:24.039Z,100631.88
2023-09-08T16:25:46.367Z,100633.47
2023-09-08T16:27:11.081Z,100637.69
2023-09-08T16:28:33.621Z,100626.66
2023-09-08T16:29:57.134Z,100638.66
2023-09-08T16:31:19.270Z,100632.28
2023-09-08T16:32:42.628Z,100630.03
2023-09-08T16:34:04.931Z,100629.69
2023-09-08T16:35:28.271Z,100626.41
2023-09-08T16:36:50.311Z,100626.13
2023-09-08T16:38:14.041Z,100626.69
2023-09-08T16:39:36.187Z,100631.44
2023-09-08T16:41:01.904Z,100622.47
2023-09-08T16:42:25.841Z,100624.28
2023-09-08T16:43:52.231Z,100628.03
2023-09-08T16:45:16.711Z,100619.66
2023-09-08T16:46:39.694Z,100620.03
2023-09-08T16:48:01.937Z,100626.06
2023-09-08T16:49:25.862Z,100618.00
2023-09-08T16:50:48.043Z,100613.88
2023-09-08T16:52:11.070Z,100622.00
2023-09-08T16:53:33.118Z,100623.59
2023-09-08T16:54:56.270Z,100612.38
2023-09-08T16:56:22.707Z,100619.13
2023-09-08T16:57:46.291Z,100621.22
2023-09-08T16:59:09.391Z,100620.28
2023-09-08T17:00:31.349Z,100627.22
2023-09-08T17:01:54.601Z,100618.50
2023-09-08T17:03:16.758Z,100626.72
2023-09-08T17:04:44.869Z,100620.53
2023-09-08T17:06:07.192Z,100631.09
2023-09-08T17:07:30.460Z,100630.66
2023-09-08T17:08:53.538Z,100634.63
2023-09-08T17:10:15.758Z,100625.09
2023-09-08T17:11:41.185Z,100629.25
2023-09-08T17:13:05.064Z,100630.81
2023-09-08T17:14:28.526Z,100626.31
2023-09-08T17:15:50.758Z,100626.66
2023-09-08T17:17:14.054Z,100628.84
2023-09-08T17:18:36.238Z,100633.97
2023-09-08T17:20:09.094Z,100627.53
2023-09-08T17:21:31.239Z,100627.97
2023-09-08T17:22:54.788Z,100624.66
2023-09-08T17:24:17.338Z,100629.44
2023-09-08T17:25:40.939Z,100631.50
2023-09-08T17:27:03.101Z,100624.28
2023-09-08T17:28:31.888Z,100632.53
2023-09-08T17:29:54.863Z,100636.88
2023-09-08T17:31:18.209Z,100629.16